Portada
METAR-TAF:

METAR-TAF

Aeroports :

Flora Municipal Airport

Flora, Illinois, Estats Units d'Amèrica

latitud: 38-39-54N, longitud: 088-27-11W, altitud: 144 m

Observació

L'informe es va fer fa 32 minuts, a les 17:55 UTC
Vent 5 kt del Oest/Nord-Oest
Temperatura 31°C
Humitat 49%
Pressió 1026 hPa
Visibilitat: 16.1 km
Núvols disperses a una alçada de 5500 ft
Núvols disperses a una alçada de 6500 ft

METAR: KFOA 201755Z AUTO 29005KT 10SM SCT055 SCT065 31/19 A3030 RMK AO2

Hora: 13:27 (18:27 UTC)


TAF: manca

Observacions i pronòstics meteorològics de més de 4000 aeroports (METAR i TAF).

Les estacions disponibles són els punts grocs i vermells al mapa.

Posi el ratolí al punt desitjat per veure el nom de l'estació.

Feu clic per veure les observacions i els pronòstics meteorològics.

Per canviar el mapa: feu clic els botons verds amb una creu de color negre per apropar; al botó verd amb un guió per allunyar la imatge; o en les fletxes verdes per a mapes adjacents.


METAR-TAF: